Time;durP1;ratioP1;P1;durP2;ratioP2;P2;SDS_P1;SDS_P2;PMS_P1;PMS_P2;Temp;Humidity;BMP_temperature;BMP_pressure;BME280_temperature;BME280_humidity;BME280_pressure;Samples;Min_cycle;Max_cycle;Signal;HPM_P1;HPM_P2
2023/05/25 04:05:45;;;;;;;1.85;1.73;;;9.30;99.90;;;;;;5270798;23;20231;-68
2023/05/25 04:08:18;;;;;;;2.27;2.17;;;9.30;99.90;;;;;;4949260;29;20212;-69
2023/05/25 04:10:46;;;;;;;3.05;2.25;;;9.30;99.90;;;;;;4966526;29;20235;-68
2023/05/25 04:13:12;;;;;;;1.30;1.20;;;9.40;99.90;;;;;;4966581;29;20172;-66
2023/05/25 04:15:38;;;;;;;1.47;1.37;;;9.40;99.90;;;;;;4965201;28;20200;-66
2023/05/25 04:18:05;;;;;;;3.83;2.05;;;9.50;99.90;;;;;;4967259;29;20436;-68
2023/05/25 04:20:31;;;;;;;6.80;1.77;;;9.60;99.90;;;;;;4966790;29;20176;-68
2023/05/25 04:22:56;;;;;;;1.60;1.50;;;9.70;99.90;;;;;;4965485;29;20244;-71
2023/05/25 04:25:22;;;;;;;3.50;2.00;;;9.80;99.90;;;;;;4966901;28;20332;-67
2023/05/25 04:27:48;;;;;;;2.67;2.47;;;10.00;99.90;;;;;;4962488;29;20184;-68
2023/05/25 04:30:14;;;;;;;1.73;1.63;;;10.10;99.90;;;;;;4960927;29;20207;-68
2023/05/25 04:32:44;;;;;;;3.50;1.60;;;10.30;99.90;;;;;;4959668;29;20649;-67
2023/05/25 04:35:10;;;;;;;3.28;1.77;;;10.50;99.90;;;;;;4960941;28;20196;-67
2023/05/25 04:37:35;;;;;;;3.10;1.10;;;10.70;99.90;;;;;;4961470;29;20177;-67
2023/05/25 04:40:05;;;;;;;3.10;2.20;;;11.00;99.90;;;;;;4957703;29;20173;-68
2023/05/25 04:42:31;;;;;;;1.83;1.73;;;11.30;99.90;;;;;;4939989;29;20424;-66
2023/05/25 04:44:57;;;;;;;5.53;2.60;;;11.40;99.90;;;;;;4956837;28;20865;-68
2023/05/25 04:47:23;;;;;;;2.50;2.30;;;11.50;99.90;;;;;;4956937;29;20768;-66
2023/05/25 04:49:49;;;;;;;2.00;1.70;;;11.50;99.90;;;;;;4956794;29;20457;-69
2023/05/25 04:52:15;;;;;;;2.77;2.27;;;11.70;99.90;;;;;;4956801;29;20417;-67
2023/05/25 04:54:42;;;;;;;1.53;1.43;;;11.80;99.90;;;;;;4956260;28;20430;-66
2023/05/25 04:57:07;;;;;;;4.20;2.40;;;11.70;99.90;;;;;;4956598;29;20193;-68
2023/05/25 04:59:33;;;;;;;2.87;2.10;;;11.80;99.90;;;;;;4939324;29;20418;-68
2023/05/25 05:01:59;;;;;;;2.10;1.40;;;11.70;99.90;;;;;;4956654;29;20171;-68
2023/05/25 05:04:24;;;;;;;2.50;1.80;;;11.80;99.90;;;;;;4938922;29;20565;-68
2023/05/25 05:06:50;;;;;;;3.13;2.33;;;11.80;99.90;;;;;;4956327;29;20178;-68
2023/05/25 05:09:16;;;;;;;2.13;2.00;;;11.90;99.90;;;;;;4955102;29;20230;-67
2023/05/25 05:11:41;;;;;;;4.07;3.07;;;11.90;99.90;;;;;;4955894;29;20202;-68
2023/05/25 05:14:07;;;;;;;1.80;1.70;;;12.00;99.90;;;;;;4955444;29;20430;-68
2023/05/25 05:16:33;;;;;;;2.57;2.20;;;12.10;99.90;;;;;;4955808;28;20254;-67
2023/05/25 05:19:00;;;;;;;2.27;2.07;;;12.20;99.90;;;;;;4955756;28;20175;-66
2023/05/25 05:21:26;;;;;;;1.70;1.60;;;12.20;99.90;;;;;;4960700;28;20719;-68
2023/05/25 05:23:52;;;;;;;1.90;1.80;;;12.30;99.90;;;;;;4961253;28;20418;-67
2023/05/25 05:26:17;;;;;;;2.53;2.33;;;12.30;99.90;;;;;;4951489;28;20178;-67
2023/05/25 05:28:43;;;;;;;3.77;2.10;;;12.40;99.90;;;;;;4955895;28;20176;-68
2023/05/25 05:31:08;;;;;;;2.50;2.30;;;12.50;99.90;;;;;;4930583;28;20217;-65
2023/05/25 05:33:34;;;;;;;2.40;2.20;;;12.50;99.90;;;;;;4953556;28;20186;-66
2023/05/25 05:36:01;;;;;;;2.23;2.13;;;12.60;99.90;;;;;;4955395;29;20202;-66
2023/05/25 05:38:27;;;;;;;2.00;1.90;;;12.70;99.90;;;;;;4938154;29;20274;-67
2023/05/25 05:40:52;;;;;;;1.90;1.80;;;12.90;99.90;;;;;;4955571;29;20439;-68
2023/05/25 05:43:18;;;;;;;2.23;2.10;;;12.90;99.90;;;;;;4961328;28;20427;-67
2023/05/25 05:45:44;;;;;;;2.60;2.40;;;13.00;99.90;;;;;;4974838;28;20303;-65
2023/05/25 05:48:09;;;;;;;2.50;2.30;;;13.00;99.90;;;;;;4975151;28;20183;-67
2023/05/25 05:50:36;;;;;;;1.80;1.70;;;13.20;99.90;;;;;;4974799;28;20220;-66
2023/05/25 05:53:02;;;;;;;1.67;1.40;;;13.50;99.90;;;;;;4955231;28;20431;-67
2023/05/25 05:55:28;;;;;;;2.83;2.60;;;13.60;99.90;;;;;;4970718;28;20439;-67
2023/05/25 05:57:53;;;;;;;1.97;1.70;;;13.80;99.90;;;;;;4974989;28;20176;-68
2023/05/25 06:00:19;;;;;;;2.70;1.87;;;14.00;99.90;;;;;;4973442;28;20640;-67
2023/05/25 06:02:45;;;;;;;3.27;2.27;;;14.10;99.90;;;;;;4975055;28;20370;-67
2023/05/25 06:05:11;;;;;;;2.37;1.97;;;14.20;99.90;;;;;;4960889;28;20205;-68
2023/05/25 06:07:37;;;;;;;3.63;2.47;;;14.20;99.50;;;;;;4938338;28;20877;-69
2023/05/25 06:10:03;;;;;;;2.47;2.27;;;14.20;99.60;;;;;;4955093;28;20200;-68
2023/05/25 06:12:29;;;;;;;2.20;2.10;;;14.20;99.70;;;;;;4955348;29;20413;-66
2023/05/25 06:14:54;;;;;;;2.37;2.03;;;14.30;99.70;;;;;;4954925;29;20436;-67
2023/05/25 06:17:21;;;;;;;4.40;2.10;;;14.40;99.60;;;;;;4937883;29;20212;-66
2023/05/25 06:19:48;;;;;;;2.83;1.73;;;14.50;99.70;;;;;;4962846;28;20635;-66
2023/05/25 06:22:14;;;;;;;3.47;3.17;;;14.50;99.60;;;;;;4937870;29;20416;-67
2023/05/25 06:24:40;;;;;;;3.37;2.80;;;14.50;99.40;;;;;;4937635;29;20467;-68
2023/05/25 06:27:05;;;;;;;3.93;2.60;;;14.60;99.60;;;;;;4955241;29;20176;-67
2023/05/25 06:29:31;;;;;;;1.83;1.73;;;14.70;98.90;;;;;;4953337;29;20189;-68
2023/05/25 06:31:56;;;;;;;2.70;2.50;;;14.70;99.00;;;;;;4951841;28;20239;-70
2023/05/25 06:34:22;;;;;;;3.73;2.37;;;14.80;99.20;;;;;;4954587;28;20571;-69
2023/05/25 06:36:48;;;;;;;2.00;1.90;;;14.70;98.70;;;;;;4943077;28;20168;-67
2023/05/25 06:39:14;;;;;;;7.83;3.20;;;14.70;98.90;;;;;;4956532;28;20627;-67
2023/05/25 06:41:39;;;;;;;2.00;1.90;;;14.80;98.80;;;;;;4974016;28;20168;-69
2023/05/25 06:44:06;;;;;;;2.93;2.73;;;14.80;98.80;;;;;;4973624;28;20426;-68
2023/05/25 06:46:32;;;;;;;1.80;1.70;;;15.00;99.00;;;;;;4968560;28;20204;-67
2023/05/25 06:48:59;;;;;;;3.27;2.10;;;15.20;99.10;;;;;;4959905;28;20430;-67
2023/05/25 06:51:28;;;;;;;5.60;2.60;;;15.60;98.50;;;;;;4955236;28;20488;-69
2023/05/25 06:53:54;;;;;;;3.00;2.70;;;16.00;97.70;;;;;;4955255;28;20434;-69
2023/05/25 06:56:21;;;;;;;3.63;2.90;;;16.10;97.30;;;;;;4947184;28;20510;-70
2023/05/25 06:58:48;;;;;;;4.80;3.10;;;16.10;97.10;;;;;;4953114;28;20432;-67
2023/05/25 07:01:14;;;;;;;3.07;2.77;;;16.00;97.20;;;;;;4956168;28;20426;-71
2023/05/25 07:03:40;;;;;;;4.73;2.47;;;16.00;97.60;;;;;;4955899;28;20434;-70
2023/05/25 07:06:06;;;;;;;3.37;3.07;;;16.00;97.60;;;;;;4954344;29;20450;-69
2023/05/25 07:08:31;;;;;;;3.40;3.00;;;16.00;97.70;;;;;;4962214;28;20216;-70
2023/05/25 07:10:57;;;;;;;5.80;3.10;;;16.00;97.60;;;;;;4954505;29;20622;-67
2023/05/25 07:13:23;;;;;;;2.70;2.50;;;16.00;97.40;;;;;;4953818;29;20222;-66
2023/05/25 07:15:48;;;;;;;2.87;2.67;;;15.80;97.50;;;;;;4956634;28;20195;-68
2023/05/25 07:18:15;;;;;;;3.33;2.43;;;15.70;97.70;;;;;;4956374;28;20269;-67
2023/05/25 07:20:40;;;;;;;3.10;2.50;;;15.60;98.20;;;;;;4937214;28;20186;-69
2023/05/25 07:23:10;;;;;;;7.20;3.17;;;15.60;98.50;;;;;;4953607;28;20432;-69
2023/05/25 07:25:40;;;;;;;4.73;2.93;;;15.60;98.60;;;;;;4966524;28;20803;-68
2023/05/25 07:28:06;;;;;;;2.87;2.57;;;15.60;98.50;;;;;;4970182;28;20526;-67
2023/05/25 07:30:31;;;;;;;4.03;3.23;;;15.60;98.60;;;;;;4948043;28;20465;-68
2023/05/25 07:32:57;;;;;;;6.87;2.70;;;15.60;98.80;;;;;;4973923;28;20405;-71
2023/05/25 07:35:24;;;;;;;2.40;2.20;;;15.60;98.70;;;;;;4956635;28;20192;-69
2023/05/25 07:38:00;;;;;;;2.80;2.50;;;15.60;98.60;;;;;;4948313;29;20185;-68
2023/05/25 07:40:26;;;;;;;3.53;2.67;;;15.60;98.60;;;;;;4958511;28;20430;-69
2023/05/25 07:42:52;;;;;;;3.30;2.80;;;15.70;98.60;;;;;;4973374;28;20482;-67
2023/05/25 07:45:18;;;;;;;3.30;3.00;;;15.70;98.50;;;;;;4959731;29;20424;-68
2023/05/25 07:47:43;;;;;;;2.33;2.13;;;15.80;98.40;;;;;;4959677;29;20988;-66
2023/05/25 07:50:09;;;;;;;2.87;2.67;;;15.90;98.40;;;;;;4957796;28;20203;-68
2023/05/25 07:52:37;;;;;;;4.00;3.57;;;16.00;98.80;;;;;;4950144;28;20187;-68
2023/05/25 07:55:03;;;;;;;5.87;2.63;;;16.20;98.50;;;;;;4940303;29;20418;-68
2023/05/25 07:57:28;;;;;;;3.10;2.80;;;16.50;98.70;;;;;;4957551;29;20512;-68
2023/05/25 07:59:54;;;;;;;3.00;2.80;;;16.70;97.90;;;;;;4957872;29;20466;-69
2023/05/25 08:02:20;;;;;;;5.23;2.93;;;17.00;97.60;;;;;;4957310;29;20639;-67
2023/05/25 08:04:45;;;;;;;4.40;3.00;;;17.40;97.10;;;;;;4957359;29;20193;-68
2023/05/25 08:07:11;;;;;;;2.97;2.50;;;17.70;97.10;;;;;;4957289;29;20311;-69
2023/05/25 08:09:37;;;;;;;2.47;2.27;;;18.00;96.60;;;;;;4957307;29;20185;-70
2023/05/25 08:12:02;;;;;;;2.90;2.70;;;18.30;96.40;;;;;;4959024;28;20233;-71
2023/05/25 08:14:28;;;;;;;3.50;2.40;;;18.90;96.00;;;;;;4956599;29;20192;-70
2023/05/25 08:16:53;;;;;;;6.20;2.47;;;19.80;94.70;;;;;;4956967;29;20176;-67
2023/05/25 08:19:19;;;;;;;2.83;2.63;;;20.30;93.20;;;;;;4956783;29;20177;-70
2023/05/25 08:21:45;;;;;;;2.90;2.50;;;20.90;92.80;;;;;;4939670;29;20209;-68
2023/05/25 08:24:10;;;;;;;3.83;2.43;;;21.80;92.10;;;;;;4956228;29;20200;-68
2023/05/25 08:26:36;;;;;;;4.00;3.50;;;22.70;90.70;;;;;;4957949;28;20213;-71
2023/05/25 08:29:04;;;;;;;2.93;2.67;;;23.60;89.20;;;;;;4957225;29;20196;-70
2023/05/25 08:31:31;;;;;;;2.57;2.37;;;24.10;87.30;;;;;;4957081;28;20607;-69
2023/05/25 08:33:58;;;;;;;3.50;3.20;;;24.40;86.10;;;;;;4956647;29;20463;-67
2023/05/25 08:36:25;;;;;;;3.10;2.90;;;24.70;84.40;;;;;;4957028;29;20451;-69
2023/05/25 08:38:50;;;;;;;3.20;2.90;;;24.90;83.40;;;;;;4957009;29;20918;-67
2023/05/25 08:41:16;;;;;;;6.20;3.70;;;25.10;82.00;;;;;;4959914;28;20399;-67
2023/05/25 08:43:42;;;;;;;6.57;2.90;;;25.20;81.60;;;;;;4961036;28;20184;-68
2023/05/25 08:46:08;;;;;;;3.27;2.97;;;25.00;81.30;;;;;;4973948;28;20215;-67
2023/05/25 08:48:36;;;;;;;3.27;3.07;;;24.50;82.10;;;;;;4973749;28;20674;-68
2023/05/25 08:51:15;;;;;;;3.20;2.53;;;24.00;83.00;;;;;;4975015;28;20447;-68
2023/05/25 08:53:42;;;;;;;2.67;2.47;;;23.40;84.20;;;;;;4970153;28;20424;-70
2023/05/25 08:56:18;;;;;;;3.10;2.60;;;22.90;85.50;;;;;;4955938;29;20467;-70
2023/05/25 08:58:58;;;;;;;3.13;2.33;;;22.50;86.60;;;;;;4956717;29;20430;-68
2023/05/25 09:01:27;;;;;;;2.87;2.57;;;22.30;87.60;;;;;;4956783;29;20396;-68
2023/05/25 09:03:55;;;;;;;3.60;2.90;;;22.60;88.10;;;;;;4955555;29;20403;-66
2023/05/25 09:06:25;;;;;;;3.87;3.47;;;22.80;87.10;;;;;;4956810;28;20446;-67
2023/05/25 09:08:52;;;;;;;3.50;3.20;;;23.00;86.30;;;;;;4956229;29;20410;-67
2023/05/25 09:11:19;;;;;;;2.47;2.33;;;23.00;87.00;;;;;;4938703;29;20463;-68
2023/05/25 09:13:45;;;;;;;3.13;2.83;;;23.20;86.10;;;;;;4955625;29;20430;-67
2023/05/25 09:16:11;;;;;;;3.00;2.60;;;23.50;86.10;;;;;;4955662;29;20426;-68
2023/05/25 09:18:37;;;;;;;3.30;2.73;;;23.90;85.60;;;;;;4955993;29;20413;-69
2023/05/25 09:21:03;;;;;;;2.77;2.47;;;24.30;84.40;;;;;;4957369;28;20613;-67
2023/05/25 09:23:29;;;;;;;3.00;2.80;;;24.80;83.00;;;;;;4971182;28;20204;-69
2023/05/25 09:25:56;;;;;;;2.77;2.27;;;24.80;82.60;;;;;;4955721;29;20197;-65
2023/05/25 09:28:21;;;;;;;3.20;2.90;;;25.30;81.60;;;;;;4956158;29;20405;-68
2023/05/25 09:30:47;;;;;;;3.53;3.23;;;26.00;79.60;;;;;;4938576;29;20435;-68
2023/05/25 09:33:17;;;;;;;3.00;2.80;;;26.50;79.50;;;;;;4937210;29;20173;-67
2023/05/25 09:35:44;;;;;;;3.47;3.17;;;27.10;77.50;;;;;;4936855;29;20660;-67
2023/05/25 09:38:13;;;;;;;3.70;3.40;;;27.40;76.10;;;;;;4955537;29;20372;-68
2023/05/25 09:40:40;;;;;;;3.13;2.73;;;27.70;75.00;;;;;;4938357;29;20402;-67
2023/05/25 09:43:06;;;;;;;4.37;3.17;;;28.00;73.30;;;;;;4955669;29;20379;-68
2023/05/25 09:45:31;;;;;;;3.83;3.43;;;27.90;73.00;;;;;;4955135;29;20489;-67
2023/05/25 09:47:58;;;;;;;3.70;3.20;;;27.70;73.50;;;;;;4955091;29;20843;-66
2023/05/25 09:50:27;;;;;;;4.70;4.27;;;27.60;73.30;;;;;;4955823;29;20201;-67
2023/05/25 09:52:57;;;;;;;4.07;2.83;;;28.00;73.60;;;;;;4955859;29;20397;-67
2023/05/25 09:55:22;;;;;;;3.27;2.97;;;28.40;72.70;;;;;;4937853;29;20977;-69
2023/05/25 09:57:53;;;;;;;3.70;2.97;;;28.80;71.30;;;;;;4955548;29;20412;-67
2023/05/25 10:00:20;;;;;;;3.10;2.90;;;28.60;70.30;;;;;;4955642;29;20192;-65
2023/05/25 10:02:45;;;;;;;3.27;2.80;;;28.60;71.60;;;;;;4941846;28;20428;-67
2023/05/25 10:05:11;;;;;;;4.73;3.20;;;28.60;71.50;;;;;;4973974;28;20959;-67
2023/05/25 10:07:39;;;;;;;5.20;3.20;;;28.60;70.90;;;;;;4970886;28;20192;-67
2023/05/25 10:10:07;;;;;;;3.40;3.20;;;28.60;70.30;;;;;;4955373;29;20188;-69
2023/05/25 10:12:34;;;;;;;3.60;3.30;;;28.80;70.40;;;;;;4955467;29;20428;-67
2023/05/25 10:15:02;;;;;;;3.67;3.13;;;28.80;69.80;;;;;;4954524;29;20448;-68
2023/05/25 10:17:30;;;;;;;3.47;3.17;;;28.50;69.90;;;;;;4955520;29;20511;-66
2023/05/25 10:19:58;;;;;;;3.70;2.90;;;28.50;69.60;;;;;;4955290;29;20409;-71
2023/05/25 10:22:42;;;;;;;3.03;2.80;;;28.60;70.80;;;;;;4954765;29;20827;-66
2023/05/25 10:25:14;;;;;;;2.80;2.60;;;28.70;69.70;;;;;;4955021;29;20431;-66
2023/05/25 10:28:01;;;;;;;3.40;3.10;;;28.30;69.20;;;;;;4955323;29;20401;-66
2023/05/25 10:30:27;;;;;;;2.93;2.73;;;27.40;71.50;;;;;;4935447;29;20439;-68
2023/05/25 10:32:55;;;;;;;2.90;2.70;;;26.30;74.30;;;;;;4954824;29;20905;-68
2023/05/25 10:35:21;;;;;;;2.87;2.67;;;25.30;76.30;;;;;;4954793;29;20491;-66
2023/05/25 10:37:51;;;;;;;4.30;3.30;;;24.90;78.80;;;;;;4954331;28;20435;-67
2023/05/25 10:40:18;;;;;;;3.30;2.20;;;24.40;78.70;;;;;;4955272;29;20985;-66
2023/05/25 10:42:44;;;;;;;3.07;2.87;;;24.20;79.30;;;;;;4955045;29;20422;-65
2023/05/25 10:45:10;;;;;;;3.27;3.07;;;24.20;80.40;;;;;;4957545;28;20414;-67
2023/05/25 10:47:42;;;;;;;3.43;3.13;;;24.10;80.10;;;;;;4974025;28;20393;-66
2023/05/25 10:50:23;;;;;;;2.60;2.40;;;24.00;80.70;;;;;;4955421;28;20849;-66
2023/05/25 10:53:10;;;;;;;2.87;2.67;;;24.10;82.60;;;;;;4918768;29;20426;-67
2023/05/25 10:56:02;;;;;;;3.53;2.53;;;24.00;80.90;;;;;;4948510;28;20490;-66
2023/05/25 10:58:28;;;;;;;3.40;3.10;;;23.80;82.20;;;;;;4974095;28;20817;-68
2023/05/25 11:01:09;;;;;;;4.03;3.40;;;23.80;83.20;;;;;;4974332;28;20407;-68
2023/05/25 11:03:44;;;;;;;2.97;2.77;;;23.60;82.40;;;;;;4969761;28;20771;-67
2023/05/25 11:06:10;;;;;;;3.07;2.50;;;23.70;82.60;;;;;;4964897;28;20431;-67
2023/05/25 11:08:54;;;;;;;2.43;2.30;;;23.60;82.70;;;;;;4974274;28;20371;-67
2023/05/25 11:11:39;;;;;;;2.87;2.67;;;23.40;83.20;;;;;;4974044;28;20458;-68
2023/05/25 11:14:19;;;;;;;4.80;3.20;;;23.10;83.70;;;;;;4973278;28;20407;-67
2023/05/25 11:17:09;;;;;;;2.90;2.70;;;22.90;84.60;;;;;;4962370;28;20424;-67
2023/05/25 11:20:05;;;;;;;2.93;2.73;;;22.80;84.90;;;;;;4939333;29;20380;-67
2023/05/25 11:22:34;;;;;;;4.43;2.63;;;22.70;85.10;;;;;;4920504;29;20459;-66
2023/05/25 11:25:01;;;;;;;2.40;2.13;;;22.60;85.50;;;;;;4938981;28;20432;-65
2023/05/25 11:27:30;;;;;;;2.80;2.60;;;22.60;85.80;;;;;;4938816;29;20380;-66
2023/05/25 11:29:58;;;;;;;3.13;2.83;;;22.50;85.40;;;;;;4921629;29;20434;-65
2023/05/25 11:32:25;;;;;;;3.57;3.30;;;22.30;85.90;;;;;;4953299;28;20390;-65
2023/05/25 11:34:57;;;;;;;4.13;2.90;;;22.30;87.50;;;;;;4976932;28;20427;-68
2023/05/25 11:37:27;;;;;;;4.27;2.67;;;22.40;87.70;;;;;;4959363;28;20403;-66
2023/05/25 11:39:53;;;;;;;5.63;2.97;;;22.60;86.80;;;;;;4957285;29;20402;-69
2023/05/25 11:42:21;;;;;;;2.20;2.10;;;22.90;86.10;;;;;;4974364;28;20456;-65
2023/05/25 11:44:48;;;;;;;2.60;2.40;;;22.90;85.70;;;;;;4976822;28;20485;-66
2023/05/25 11:47:17;;;;;;;2.20;2.00;;;22.80;86.00;;;;;;4960127;28;20402;-66
2023/05/25 11:49:46;;;;;;;3.37;2.20;;;22.80;86.20;;;;;;4957524;29;20899;-66
2023/05/25 11:52:18;;;;;;;2.80;2.40;;;22.70;87.70;;;;;;4969223;28;20398;-67
2023/05/25 11:54:45;;;;;;;2.53;2.17;;;22.90;86.70;;;;;;4975611;28;20442;-67
2023/05/25 11:57:15;;;;;;;2.40;2.20;;;23.00;85.90;;;;;;4964285;28;20801;-66
2023/05/25 11:59:53;;;;;;;2.27;2.00;;;23.00;85.20;;;;;;4957760;29;20382;-66
2023/05/25 12:02:20;;;;;;;2.97;2.53;;;23.00;86.40;;;;;;4972812;28;20485;-66
2023/05/25 12:04:57;;;;;;;2.50;2.30;;;23.00;86.40;;;;;;4976386;28;20446;-68
2023/05/25 12:07:25;;;;;;;3.50;2.50;;;23.00;85.70;;;;;;4959954;28;20415;-65
2023/05/25 12:09:51;;;;;;;2.97;2.77;;;23.00;85.60;;;;;;4957220;29;20486;-65
2023/05/25 12:12:16;;;;;;;2.80;2.60;;;22.90;85.20;;;;;;4957151;29;20395;-68
2023/05/25 12:14:49;;;;;;;2.87;2.60;;;23.00;85.60;;;;;;4956878;29;20436;-66
2023/05/25 12:17:16;;;;;;;2.50;2.10;;;23.00;85.90;;;;;;4957473;29;20169;-65
2023/05/25 12:19:42;;;;;;;3.87;2.80;;;23.00;86.10;;;;;;4962698;28;20426;-68
2023/05/25 12:22:08;;;;;;;2.40;2.20;;;23.00;86.20;;;;;;4961921;28;20845;-66
2023/05/25 12:24:34;;;;;;;3.30;2.83;;;23.10;86.80;;;;;;4962247;28;20666;-67
2023/05/25 12:27:01;;;;;;;3.63;3.00;;;23.20;84.50;;;;;;4956562;28;20488;-68
2023/05/25 12:29:27;;;;;;;4.00;2.70;;;23.20;85.10;;;;;;4957097;29;20179;-67
2023/05/25 12:32:01;;;;;;;2.53;2.33;;;23.20;84.90;;;;;;4939789;29;20442;-64
2023/05/25 12:34:30;;;;;;;3.30;3.00;;;23.20;85.00;;;;;;4956097;29;21021;-70
2023/05/25 12:36:56;;;;;;;3.10;2.10;;;23.20;85.10;;;;;;4957135;29;20440;-69
2023/05/25 12:39:27;;;;;;;2.83;2.63;;;23.10;85.70;;;;;;4956901;29;20811;-67
2023/05/25 12:41:54;;;;;;;2.83;2.33;;;23.10;84.90;;;;;;4956849;29;20173;-72
2023/05/25 12:44:33;;;;;;;2.60;2.40;;;23.00;85.10;;;;;;4965766;28;20429;-69
2023/05/25 12:47:29;;;;;;;2.67;2.37;;;22.90;85.80;;;;;;4956772;29;20420;-67
2023/05/25 12:50:14;;;;;;;2.60;2.03;;;23.00;86.10;;;;;;4927721;29;20905;-68
2023/05/25 12:52:45;;;;;;;2.73;2.53;;;23.20;85.80;;;;;;4956345;29;20424;-67
2023/05/25 12:55:24;;;;;;;2.73;2.50;;;23.40;86.30;;;;;;4956247;29;20391;-68
2023/05/25 12:57:53;;;;;;;2.53;2.33;;;23.50;84.50;;;;;;4968955;28;20401;-69
2023/05/25 13:00:24;;;;;;;4.70;2.87;;;23.50;85.20;;;;;;4975757;28;20785;-67
2023/05/25 13:02:50;;;;;;;2.17;2.07;;;23.50;84.60;;;;;;4971619;28;20420;-68
2023/05/25 13:05:27;;;;;;;2.90;2.70;;;23.40;84.30;;;;;;4955977;28;20463;-68
2023/05/25 13:07:54;;;;;;;3.53;2.83;;;23.30;84.40;;;;;;4956502;29;20476;-67
2023/05/25 13:10:20;;;;;;;2.63;2.43;;;23.10;85.50;;;;;;4956308;29;20456;-67
2023/05/25 13:12:47;;;;;;;2.40;2.20;;;23.00;85.00;;;;;;4970550;28;20418;-69
2023/05/25 13:15:21;;;;;;;3.13;2.90;;;23.00;86.10;;;;;;4966300;28;20508;-67
2023/05/25 13:17:50;;;;;;;2.57;2.37;;;23.00;87.40;;;;;;4937238;29;20788;-67
2023/05/25 13:20:22;;;;;;;3.73;3.37;;;23.10;87.60;;;;;;4937088;29;20398;-66
2023/05/25 13:22:50;;;;;;;3.60;2.67;;;23.20;85.20;;;;;;4937005;29;20388;-67
2023/05/25 13:25:16;;;;;;;4.93;3.10;;;23.20;85.30;;;;;;4947509;28;20449;-66
2023/05/25 13:27:46;;;;;;;2.70;2.50;;;23.00;85.90;;;;;;4961522;28;20435;-69
2023/05/25 13:30:12;;;;;;;5.83;3.10;;;22.80;86.00;;;;;;4956069;29;20419;-68
2023/05/25 13:32:39;;;;;;;4.20;2.43;;;22.80;86.50;;;;;;4955092;29;20486;-63
2023/05/25 13:35:06;;;;;;;2.27;2.00;;;22.80;87.20;;;;;;4954339;29;20568;-67
2023/05/25 13:37:33;;;;;;;6.53;2.97;;;22.80;86.20;;;;;;4938081;28;20464;-67
2023/05/25 13:39:59;;;;;;;2.70;2.00;;;22.80;86.60;;;;;;4960686;28;20943;-67
2023/05/25 13:42:25;;;;;;;4.00;2.80;;;22.80;87.00;;;;;;4947978;29;20392;-65
2023/05/25 13:44:51;;;;;;;2.60;2.40;;;23.00;87.10;;;;;;4955201;29;20422;-68
2023/05/25 13:47:17;;;;;;;3.70;2.97;;;23.20;86.30;;;;;;4938641;29;20577;-67
2023/05/25 13:49:43;;;;;;;3.27;2.97;;;23.40;86.60;;;;;;4955736;29;20495;-64
2023/05/25 13:52:08;;;;;;;2.63;2.43;;;23.60;85.40;;;;;;4962221;28;20466;-66
2023/05/25 13:54:34;;;;;;;3.30;3.00;;;23.50;84.70;;;;;;4965312;28;20197;-66
2023/05/25 13:57:00;;;;;;;2.33;2.13;;;23.40;84.50;;;;;;4970999;28;20259;-67
2023/05/25 13:59:25;;;;;;;2.77;2.57;;;23.30;84.80;;;;;;4956645;28;20180;-68
2023/05/25 14:01:51;;;;;;;2.90;2.70;;;23.10;85.10;;;;;;4955092;29;20421;-68
2023/05/25 14:04:17;;;;;;;2.50;2.30;;;22.90;86.20;;;;;;4955643;28;20199;-68
2023/05/25 14:06:42;;;;;;;3.20;3.00;;;22.80;87.10;;;;;;4954623;29;20269;-66
2023/05/25 14:09:10;;;;;;;2.50;2.40;;;22.70;86.80;;;;;;4954754;29;20637;-65
2023/05/25 14:11:36;;;;;;;2.93;2.63;;;22.60;86.60;;;;;;4954525;29;20215;-67
2023/05/25 14:14:02;;;;;;;4.63;3.13;;;22.70;87.00;;;;;;4948971;28;20438;-65
2023/05/25 14:16:28;;;;;;;2.40;2.20;;;22.60;86.90;;;;;;4970650;28;20482;-65
2023/05/25 14:18:55;;;;;;;2.17;2.07;;;22.70;86.80;;;;;;4955180;29;20846;-66
2023/05/25 14:21:21;;;;;;;2.87;2.67;;;22.80;87.20;;;;;;4954610;28;20264;-69
2023/05/25 14:23:49;;;;;;;3.20;2.13;;;22.90;87.40;;;;;;4954727;29;20425;-66
2023/05/25 14:26:15;;;;;;;3.80;2.50;;;22.90;86.20;;;;;;4954402;29;20265;-67
2023/05/25 14:28:41;;;;;;;3.30;2.60;;;23.00;87.00;;;;;;4937387;29;20507;-68
2023/05/25 14:31:06;;;;;;;2.47;2.30;;;23.00;86.80;;;;;;4963032;28;20188;-69
2023/05/25 14:33:32;;;;;;;3.07;2.87;;;23.10;87.70;;;;;;4973829;28;20425;-69
2023/05/25 14:35:57;;;;;;;3.10;2.90;;;23.20;85.50;;;;;;4961458;28;20193;-68
2023/05/25 14:38:23;;;;;;;2.67;2.50;;;23.20;85.50;;;;;;4954771;29;20184;-70
2023/05/25 14:40:48;;;;;;;2.53;2.10;;;23.20;86.40;;;;;;4959579;28;20177;-66
2023/05/25 14:43:14;;;;;;;2.93;2.63;;;23.20;85.40;;;;;;4954451;28;20259;-68
2023/05/25 14:45:40;;;;;;;2.33;2.20;;;23.30;85.50;;;;;;4954218;28;20697;-66
2023/05/25 14:48:05;;;;;;;3.27;2.10;;;23.30;85.20;;;;;;4962313;28;20184;-68
2023/05/25 14:50:31;;;;;;;3.57;3.20;;;23.30;85.60;;;;;;4920502;29;20201;-66
2023/05/25 14:52:56;;;;;;;2.37;2.17;;;23.30;85.30;;;;;;4960750;28;20231;-68
2023/05/25 14:55:22;;;;;;;2.10;2.00;;;23.20;85.20;;;;;;4977731;28;20231;-66
2023/05/25 14:57:48;;;;;;;2.63;2.43;;;23.20;85.50;;;;;;4970124;28;20181;-68
2023/05/25 15:00:14;;;;;;;4.30;2.90;;;23.00;85.30;;;;;;4958197;29;20180;-68
2023/05/25 15:02:39;;;;;;;3.00;2.57;;;22.90;85.50;;;;;;4958515;29;20176;-71
2023/05/25 15:05:05;;;;;;;1.73;1.63;;;22.80;86.00;;;;;;4962124;28;20444;-67
2023/05/25 15:07:31;;;;;;;2.27;2.10;;;22.80;86.60;;;;;;4957583;29;20193;-66
2023/05/25 15:09:57;;;;;;;2.63;2.43;;;22.80;86.30;;;;;;4964905;28;20408;-67
2023/05/25 15:12:22;;;;;;;1.70;1.60;;;22.70;86.50;;;;;;4976394;28;20266;-66
2023/05/25 15:14:48;;;;;;;3.17;2.40;;;22.70;86.60;;;;;;4940170;29;20559;-66
2023/05/25 15:17:13;;;;;;;2.53;2.33;;;22.70;86.70;;;;;;4957897;28;20180;-66
2023/05/25 15:19:39;;;;;;;3.83;2.70;;;22.70;87.40;;;;;;4958367;28;20187;-64
2023/05/25 15:22:04;;;;;;;1.93;1.83;;;22.80;87.10;;;;;;4958023;29;20197;-66
2023/05/25 15:24:30;;;;;;;3.03;2.83;;;22.80;86.50;;;;;;4957583;29;20661;-65
2023/05/25 15:26:56;;;;;;;2.60;2.50;;;22.80;86.80;;;;;;4958058;29;20237;-66
2023/05/25 15:29:21;;;;;;;2.40;2.30;;;22.80;86.00;;;;;;4963639;28;20179;-66
2023/05/25 15:31:51;;;;;;;3.33;3.00;;;22.80;87.40;;;;;;4944737;28;20201;-67
2023/05/25 15:34:16;;;;;;;2.23;2.03;;;22.80;86.40;;;;;;4940855;29;20280;-64
2023/05/25 15:36:43;;;;;;;2.70;2.50;;;22.60;86.50;;;;;;4957994;29;20490;-66
2023/05/25 15:39:11;;;;;;;2.40;2.20;;;22.60;86.30;;;;;;4957608;29;20251;-64
2023/05/25 15:41:37;;;;;;;2.80;2.60;;;22.60;86.00;;;;;;4957600;29;20415;-66
2023/05/25 15:44:06;;;;;;;2.90;2.10;;;22.50;86.70;;;;;;4956830;29;20388;-65
2023/05/25 15:46:32;;;;;;;2.10;2.00;;;22.40;86.70;;;;;;4964136;28;20520;-68
2023/05/25 15:48:58;;;;;;;2.50;2.30;;;22.40;86.60;;;;;;4941332;28;20456;-65
2023/05/25 15:51:23;;;;;;;2.90;2.70;;;22.40;87.00;;;;;;4957560;28;20200;-68
2023/05/25 15:53:49;;;;;;;2.70;2.50;;;22.40;87.30;;;;;;4956414;29;20196;-65
2023/05/25 15:56:15;;;;;;;2.37;2.27;;;22.40;87.50;;;;;;4956999;29;20182;-65
2023/05/25 15:58:40;;;;;;;2.63;2.43;;;22.40;87.40;;;;;;4957232;29;20184;-63
2023/05/25 16:01:06;;;;;;;2.50;2.30;;;22.40;88.00;;;;;;4939853;29;20194;-65
2023/05/25 16:03:32;;;;;;;2.57;2.37;;;22.40;87.30;;;;;;4956748;29;20186;-65
2023/05/25 16:05:57;;;;;;;3.00;2.80;;;22.40;87.80;;;;;;4958080;28;20219;-64
2023/05/25 16:08:23;;;;;;;1.50;1.50;;;22.30;87.40;;;;;;4960847;28;20308;-62
2023/05/25 16:10:48;;;;;;;2.50;2.30;;;22.30;88.30;;;;;;4961084;29;20193;-65
2023/05/25 16:13:14;;;;;;;2.20;2.00;;;22.20;87.70;;;;;;4960617;28;20177;-69
2023/05/25 16:15:40;;;;;;;3.10;2.27;;;22.20;87.40;;;;;;4938683;29;20189;-64
2023/05/25 16:18:08;;;;;;;2.70;2.50;;;22.20;87.50;;;;;;4962066;29;20614;-66
2023/05/25 16:20:33;;;;;;;2.17;1.90;;;22.20;87.90;;;;;;4958701;29;20174;-66
2023/05/25 16:22:59;;;;;;;1.97;1.87;;;22.20;88.20;;;;;;4943247;29;20451;-68
2023/05/25 16:25:24;;;;;;;2.47;2.27;;;22.20;87.10;;;;;;4959558;28;20213;-66
2023/05/25 16:27:50;;;;;;;2.80;2.60;;;22.20;87.30;;;;;;4960034;28;20632;-67
2023/05/25 16:30:16;;;;;;;4.93;2.40;;;22.20;87.40;;;;;;4960472;28;20223;-67
2023/05/25 16:32:41;;;;;;;3.17;2.33;;;22.20;88.20;;;;;;4959341;29;20669;-68
2023/05/25 16:35:07;;;;;;;2.60;2.13;;;22.20;88.10;;;;;;4959052;29;20195;-68
2023/05/25 16:37:33;;;;;;;2.63;2.43;;;22.20;87.90;;;;;;4959462;29;20263;-67
2023/05/25 16:39:58;;;;;;;2.43;2.23;;;22.20;88.10;;;;;;4955638;29;20252;-66
2023/05/25 16:42:25;;;;;;;2.70;2.47;;;22.20;87.40;;;;;;4955996;28;20169;-67
2023/05/25 16:44:50;;;;;;;3.00;2.80;;;22.10;87.50;;;;;;4939517;28;20277;-69
2023/05/25 16:47:19;;;;;;;2.17;1.97;;;22.10;87.50;;;;;;4956664;28;20508;-66
2023/05/25 16:49:48;;;;;;;3.50;2.53;;;22.00;87.30;;;;;;4957684;29;20523;-66
2023/05/25 16:52:13;;;;;;;3.93;2.40;;;22.00;87.60;;;;;;4939394;29;20421;-67
2023/05/25 16:54:39;;;;;;;3.07;2.77;;;22.00;87.40;;;;;;4956562;28;20791;-67